Terminal Aerodrome Forecast
Issued by NWS Brownsville, TX

Home | Current Version | Previous Version | Text Only | Print | Product List | Glossary On
Versions: 1 2 3 4 5 6 7 8 9 10 11 12 13 14 15 16
000
FTUS44 KBRO 272300
TAFMFE
TAF
KMFE 272329Z 2800/2824 05010KT P6SM SCT050
     FM280300 VRB04KT P6SM FEW030
     FM281400 03010KT P6SM VCSH BKN025
      TEMPO 2814/2817 5SM RA BR BKN020
     FM281700 20008KT P6SM VCTS SCT025CB BKN040
      TEMPO 2817/2821 3SM TSRA BKN020CB=

USA.gov is the U.S. government's official web portal to all federal, state and local government web resources and services.